Detall de PIREP

Printer-friendly versionPDF version

[2013/09/25 08:03:00]
Flight IATA:CT0001
Pilot Number:011
Company ICAO:CAT
Aircraft Type:F50/A
PAX:50
Aircraft Registration:DREAMWINGS
Departing Airport: LEAP
Destination Airport: LEVC
Alternate Airport:LEPA
Online: VATSIM
Route:BGR GRN MAMUK H110 SEROX A34 SAURA
Flight Level:F190
No Slew and time accel
No pause
Crash detect
Detect pilot in Cockpit between each 30 and 45 minutes
08:03 Zero fuel Weight: 41543 Lbs, Fuel Weight: 3269 Lbs
08:03 VATSIM:No METAR available for LEAP.
08:03 VATSIM:LEVC 250730Z 31005KT 9999 BKN025 21/17 Q1014 NOSIG
08:10 Parking Brakes off
08:16 Take-off
08:16 Take off Weight: 44720 Lbs
08:16 Wind: 057º @ 001 Knots Heading: 166º
08:16 POS N42º 15´ 29´´ E003º 06´ 45´´
08:16 Gear Up: 133 Knots
08:16 Flaps:4 at 133 Knots
08:17 Flaps:3 at 156 Knots
08:17 Flaps:2 at 160 Knots
08:17 Flaps:1 at 160 Knots
08:18 Flaps:0 at 171 Knots
08:30 TOC
08:30 Fuel Weight: 2776 Lb
08:31 Wind:286º@000 Knots Heading: 263º Ground Speed: 239 Knots Altitude 18996 ft
08:46 Wind:301º@003 Knots Heading: 258º Ground Speed: 264 Knots Altitude 18943 ft
09:01 Wind:095º@009 Knots Heading: 196º Ground Speed: 270 Knots Altitude 18950 ft
09:08 TOD
09:08 Fuel Weight: 1796 Lb
09:16 Wind:133º@004 Knots Heading: 195º Ground Speed: 239 Knots Altitude 8041 ft
09:28 Flaps:1 at 185 Knots
09:29 Flaps:2 at 172 Knots
09:30 Flaps:3 at 164 Knots
09:30 Gear Down: 164 Knots
09:30 Flaps:4 at 120 Knots
09:31 Wind:130º@002 Knots Heading: 117º Ground Speed: 119 Knots Altitude 2188 ft
09:31 Flaps:5 at 117 Knots
09:32 Flaps:6 at 110 Knots
09:35 TouchDown:Rate -151 ft/min Speed: 87 Knots
09:35 VATSIM:LEVC 250900Z VRB02KT 9999 BKN025 24/18 Q1015 NOSIG
09:35 Land
09:35 Wind:138º@001 Knots
09:35 Heading: 114º
09:35 Flight Duration: 01:19
09:35 Landing Weight: 43026 Lbs
09:35 POS N39º 29´ 06´´ W000º 28´ 14´´
09:38 Parking brakes on
09:38 Block to Block Duration: 01:28
09:38 Final Fuel: 1459 Lbls
09:38 Spent Fuel: 1809 Lbls
09:38 Flight Length: 237 NM
09:38 TOD Land Length: 88 NM

Exportar CSV

Powered by Drupal - Modified by Danger4k